createdAt,value
2022-08-03T00:00:06.488Z,506.00
2022-08-03T00:00:36.520Z,506.00
2022-08-03T00:01:06.554Z,505.00
2022-08-03T00:01:36.586Z,505.00
2022-08-03T00:02:06.698Z,506.00
2022-08-03T00:02:36.717Z,506.00
2022-08-03T00:03:06.837Z,508.00
2022-08-03T00:03:36.847Z,508.00
2022-08-03T00:04:06.873Z,509.00
2022-08-03T00:04:36.910Z,510.00
2022-08-03T00:05:06.952Z,511.00
2022-08-03T00:05:36.983Z,512.00
2022-08-03T00:06:07.018Z,515.00
2022-08-03T00:06:37.426Z,514.00
2022-08-03T00:07:07.072Z,514.00
2022-08-03T00:07:37.106Z,513.00
2022-08-03T00:08:07.153Z,515.00
2022-08-03T00:08:40.051Z,516.00
2022-08-03T00:09:07.225Z,514.00
2022-08-03T00:09:37.265Z,515.00
2022-08-03T00:10:07.292Z,514.00
2022-08-03T00:10:37.327Z,513.00
2022-08-03T00:11:07.362Z,512.00
2022-08-03T00:11:37.393Z,512.00
2022-08-03T00:12:07.427Z,513.00
2022-08-03T00:12:37.462Z,514.00
2022-08-03T00:13:07.513Z,515.00
2022-08-03T00:13:37.624Z,514.00
2022-08-03T00:14:07.654Z,516.00
2022-08-03T00:14:37.686Z,519.00
2022-08-03T00:15:11.475Z,519.00
2022-08-03T00:15:37.763Z,519.00
2022-08-03T00:16:07.808Z,518.00
2022-08-03T00:16:37.828Z,517.00
2022-08-03T00:17:07.856Z,518.00
2022-08-03T00:17:52.977Z,518.00
2022-08-03T00:18:07.937Z,518.00
2022-08-03T00:18:37.975Z,518.00
2022-08-03T00:19:08.008Z,519.00
2022-08-03T00:19:38.042Z,519.00
2022-08-03T00:20:08.070Z,520.00
2022-08-03T00:20:38.109Z,520.00
2022-08-03T00:21:08.146Z,521.00
2022-08-03T00:21:38.171Z,522.00
2022-08-03T00:22:08.205Z,521.00
2022-08-03T00:22:38.237Z,520.00
2022-08-03T00:23:08.272Z,519.00
2022-08-03T00:23:51.552Z,517.00
2022-08-03T00:24:08.368Z,517.00
2022-08-03T00:24:38.398Z,517.00
2022-08-03T00:25:08.426Z,518.00
2022-08-03T00:25:38.464Z,519.00
2022-08-03T00:26:08.500Z,516.00
2022-08-03T00:26:38.531Z,517.00
2022-08-03T00:27:08.570Z,518.00
2022-08-03T00:27:38.597Z,519.00
2022-08-03T00:28:08.658Z,519.00
2022-08-03T00:28:38.698Z,517.00
2022-08-03T00:29:08.735Z,517.00
2022-08-03T00:30:00.043Z,516.00
2022-08-03T00:30:08.813Z,517.00
2022-08-03T00:30:38.845Z,515.00
2022-08-03T00:31:08.931Z,516.00
2022-08-03T00:31:44.960Z,516.00
2022-08-03T00:32:09.649Z,515.00
2022-08-03T00:32:44.247Z,514.00
2022-08-03T00:33:09.246Z,514.00
2022-08-03T00:33:58.348Z,515.00
2022-08-03T00:34:09.303Z,514.00
2022-08-03T00:34:58.372Z,514.00
2022-08-03T00:35:12.342Z,514.00
2022-08-03T00:35:50.755Z,514.00
2022-08-03T00:36:09.427Z,513.00
2022-08-03T00:36:39.422Z,513.00
2022-08-03T00:37:09.548Z,515.00
2022-08-03T00:37:40.962Z,515.00
2022-08-03T00:38:09.710Z,514.00
2022-08-03T00:38:39.712Z,515.00
2022-08-03T00:39:09.709Z,513.00
2022-08-03T00:39:39.706Z,514.00
2022-08-03T00:40:09.703Z,515.00
2022-08-03T00:40:39.704Z,514.00
2022-08-03T00:41:09.698Z,514.00
2022-08-03T00:41:39.697Z,515.00
2022-08-03T00:42:09.917Z,517.00
2022-08-03T00:42:39.822Z,516.00
2022-08-03T00:43:09.945Z,517.00
2022-08-03T00:43:39.947Z,517.00
2022-08-03T00:44:09.947Z,516.00
2022-08-03T00:44:39.944Z,516.00
2022-08-03T00:45:09.942Z,519.00
2022-08-03T00:45:39.952Z,516.00
2022-08-03T00:46:09.978Z,515.00
2022-08-03T00:46:40.010Z,515.00
2022-08-03T00:47:10.049Z,513.00
2022-08-03T00:47:40.081Z,513.00
2022-08-03T00:48:19.818Z,514.00
2022-08-03T00:48:40.163Z,515.00
2022-08-03T00:49:10.255Z,515.00
2022-08-03T00:49:41.004Z,513.00
2022-08-03T00:50:10.328Z,513.00
2022-08-03T00:50:40.363Z,512.00
2022-08-03T00:51:10.400Z,515.00
2022-08-03T00:51:40.425Z,515.00
2022-08-03T00:52:10.462Z,515.00
2022-08-03T00:52:40.493Z,516.00
2022-08-03T00:53:10.527Z,514.00
2022-08-03T00:53:40.571Z,516.00
2022-08-03T00:54:10.604Z,517.00
2022-08-03T00:54:40.637Z,517.00
2022-08-03T00:55:10.667Z,516.00
2022-08-03T00:55:40.704Z,514.00
2022-08-03T00:56:10.737Z,513.00
2022-08-03T00:56:40.774Z,511.00
2022-08-03T00:57:10.826Z,511.00
2022-08-03T00:57:40.859Z,511.00
2022-08-03T00:58:10.891Z,511.00
2022-08-03T00:58:40.928Z,511.00
2022-08-03T00:59:10.964Z,512.00
2022-08-03T00:59:41.089Z,513.00
2022-08-03T01:00:11.119Z,512.00
2022-08-03T01:00:41.145Z,513.00
2022-08-03T01:01:11.266Z,512.00
2022-08-03T01:01:41.347Z,512.00
2022-08-03T01:02:11.357Z,513.00
2022-08-03T01:02:41.395Z,513.00
2022-08-03T01:03:11.422Z,513.00
2022-08-03T01:03:41.460Z,514.00
2022-08-03T01:04:11.494Z,511.00
2022-08-03T01:04:41.523Z,509.00
2022-08-03T01:05:11.557Z,509.00
2022-08-03T01:05:41.589Z,510.00
2022-08-03T01:06:11.625Z,509.00
2022-08-03T01:06:41.655Z,509.00
2022-08-03T01:07:11.693Z,509.00
2022-08-03T01:07:41.724Z,508.00
2022-08-03T01:08:11.759Z,509.00
2022-08-03T01:08:41.796Z,509.00
2022-08-03T01:09:11.823Z,510.00
2022-08-03T01:09:41.853Z,512.00
2022-08-03T01:10:11.887Z,511.00
2022-08-03T01:10:41.914Z,512.00
2022-08-03T01:11:11.944Z,512.00
2022-08-03T01:12:00.600Z,512.00
2022-08-03T01:12:12.032Z,514.00
2022-08-03T01:12:42.058Z,515.00
2022-08-03T01:13:59.229Z,515.00
2022-08-03T01:14:01.764Z,517.00
2022-08-03T01:14:18.941Z,519.00
2022-08-03T01:14:42.240Z,520.00
2022-08-03T01:15:12.280Z,520.00
2022-08-03T01:15:42.290Z,519.00
2022-08-03T01:16:12.322Z,517.00
2022-08-03T01:16:42.359Z,515.00
2022-08-03T01:17:12.397Z,516.00
2022-08-03T01:17:42.424Z,518.00
2022-08-03T01:18:12.505Z,518.00
2022-08-03T01:18:42.541Z,519.00
2022-08-03T01:19:12.570Z,521.00
2022-08-03T01:19:42.606Z,521.00
2022-08-03T01:20:12.631Z,521.00
2022-08-03T01:20:42.667Z,520.00
2022-08-03T01:21:12.696Z,521.00
2022-08-03T01:21:43.019Z,519.00
2022-08-03T01:22:12.803Z,517.00
2022-08-03T01:22:42.837Z,518.00
2022-08-03T01:23:12.899Z,519.00
2022-08-03T01:23:43.002Z,518.00
2022-08-03T01:24:13.049Z,518.00
2022-08-03T01:24:42.982Z,516.00
2022-08-03T01:25:13.057Z,512.00
2022-08-03T01:25:43.120Z,512.00
2022-08-03T01:26:13.152Z,513.00
2022-08-03T01:26:43.181Z,512.00
2022-08-03T01:27:13.217Z,514.00
2022-08-03T01:27:43.244Z,515.00
2022-08-03T01:28:13.279Z,515.00
2022-08-03T01:28:43.311Z,516.00
2022-08-03T01:29:13.348Z,518.00
2022-08-03T01:29:43.376Z,518.00
2022-08-03T01:30:13.410Z,518.00
2022-08-03T01:30:43.445Z,519.00
2022-08-03T01:31:13.474Z,517.00
2022-08-03T01:32:52.495Z,516.00
2022-08-03T01:32:58.563Z,515.00
2022-08-03T01:33:02.431Z,516.00
2022-08-03T01:33:13.693Z,517.00
2022-08-03T01:33:43.953Z,518.00
2022-08-03T01:34:14.753Z,517.00
2022-08-03T01:34:43.840Z,516.00
2022-08-03T01:35:13.873Z,517.00
2022-08-03T01:35:43.884Z,518.00
2022-08-03T01:36:14.003Z,516.00
2022-08-03T01:36:43.996Z,515.00
2022-08-03T01:37:13.998Z,516.00
2022-08-03T01:37:44.117Z,515.00
2022-08-03T01:38:14.236Z,515.00
2022-08-03T01:38:44.248Z,514.00
2022-08-03T01:39:14.272Z,514.00
2022-08-03T01:39:44.392Z,514.00
2022-08-03T01:40:14.513Z,516.00
2022-08-03T01:40:44.579Z,517.00
2022-08-03T01:41:14.560Z,516.00
2022-08-03T01:41:44.554Z,515.00
2022-08-03T01:42:14.903Z,514.00
2022-08-03T01:42:44.708Z,514.00
2022-08-03T01:43:14.835Z,513.00
2022-08-03T01:44:03.053Z,515.00
2022-08-03T01:44:28.982Z,515.00
2022-08-03T01:44:44.891Z,516.00
2022-08-03T01:45:14.882Z,517.00
2022-08-03T01:45:44.904Z,518.00
2022-08-03T01:46:14.939Z,518.00
2022-08-03T01:46:47.746Z,519.00
2022-08-03T01:47:14.990Z,518.00
2022-08-03T01:47:45.024Z,517.00
2022-08-03T01:48:15.065Z,519.00
2022-08-03T01:48:45.102Z,518.00
2022-08-03T01:49:15.199Z,517.00
2022-08-03T01:49:45.389Z,516.00
2022-08-03T01:50:15.296Z,515.00
2022-08-03T01:50:45.389Z,515.00
2022-08-03T01:51:15.420Z,515.00
2022-08-03T01:51:58.614Z,516.00
2022-08-03T01:52:15.688Z,517.00
2022-08-03T01:52:45.592Z,519.00
2022-08-03T01:53:15.624Z,519.00
2022-08-03T01:53:45.661Z,520.00
2022-08-03T01:54:15.691Z,518.00
2022-08-03T01:54:45.830Z,518.00
2022-08-03T01:55:15.839Z,519.00
2022-08-03T01:55:45.870Z,518.00
2022-08-03T01:56:15.901Z,516.00
2022-08-03T01:56:45.939Z,516.00
2022-08-03T01:57:15.973Z,515.00
2022-08-03T01:58:05.452Z,517.00
2022-08-03T01:58:16.051Z,517.00
2022-08-03T01:58:46.185Z,517.00
2022-08-03T01:59:16.086Z,517.00
2022-08-03T01:59:46.117Z,517.00
2022-08-03T02:00:16.155Z,516.00
2022-08-03T02:00:46.231Z,517.00
2022-08-03T02:01:16.294Z,515.00
2022-08-03T02:02:19.505Z,515.00
2022-08-03T02:02:33.560Z,515.00
2022-08-03T02:02:46.443Z,515.00
2022-08-03T02:03:16.476Z,515.00
2022-08-03T02:03:56.657Z,516.00
2022-08-03T02:04:16.559Z,517.00
2022-08-03T02:04:46.595Z,517.00
2022-08-03T02:05:16.625Z,515.00
2022-08-03T02:05:46.659Z,514.00
2022-08-03T02:07:00.260Z,516.00
2022-08-03T02:07:01.178Z,515.00
2022-08-03T02:07:16.798Z,515.00
2022-08-03T02:07:46.836Z,515.00
2022-08-03T02:08:16.870Z,515.00
2022-08-03T02:08:46.909Z,515.00
2022-08-03T02:09:16.947Z,516.00
2022-08-03T02:09:46.999Z,515.00
2022-08-03T02:10:17.017Z,513.00
2022-08-03T02:10:47.071Z,514.00
2022-08-03T02:11:17.108Z,514.00
2022-08-03T02:11:47.144Z,517.00
2022-08-03T02:12:17.541Z,517.00
2022-08-03T02:12:51.081Z,518.00
2022-08-03T02:13:17.339Z,520.00
2022-08-03T02:13:47.378Z,517.00
2022-08-03T02:14:17.414Z,516.00
2022-08-03T02:14:47.445Z,516.00
2022-08-03T02:15:17.482Z,516.00
2022-08-03T02:15:47.515Z,517.00
2022-08-03T02:16:17.549Z,519.00
2022-08-03T02:16:47.584Z,518.00
2022-08-03T02:17:17.622Z,519.00
2022-08-03T02:17:47.656Z,516.00
2022-08-03T02:18:17.699Z,515.00
2022-08-03T02:18:47.736Z,514.00
2022-08-03T02:19:17.758Z,513.00
2022-08-03T02:19:47.797Z,510.00
2022-08-03T02:20:17.831Z,509.00
2022-08-03T02:20:47.864Z,509.00
2022-08-03T02:21:55.924Z,510.00
2022-08-03T02:21:56.767Z,511.00
2022-08-03T02:22:18.191Z,511.00
2022-08-03T02:22:48.029Z,511.00
2022-08-03T02:23:18.064Z,511.00
2022-08-03T02:23:48.100Z,512.00
2022-08-03T02:24:18.133Z,512.00
2022-08-03T02:24:49.303Z,512.00
2022-08-03T02:25:18.244Z,513.00
2022-08-03T02:25:48.276Z,513.00
2022-08-03T02:26:18.312Z,511.00
2022-08-03T02:26:48.344Z,511.00
2022-08-03T02:27:18.379Z,510.00
2022-08-03T02:27:48.417Z,509.00
2022-08-03T02:28:18.451Z,510.00
2022-08-03T02:28:48.490Z,505.00
2022-08-03T02:29:18.518Z,505.00
2022-08-03T02:29:48.556Z,507.00
2022-08-03T02:30:18.594Z,509.00
2022-08-03T02:30:51.858Z,511.00
2022-08-03T02:31:18.675Z,511.00
2022-08-03T02:31:48.715Z,510.00
2022-08-03T02:32:18.995Z,512.00
2022-08-03T02:32:48.750Z,512.00
2022-08-03T02:33:18.782Z,513.00
2022-08-03T02:33:48.821Z,512.00
2022-08-03T02:34:18.847Z,512.00
2022-08-03T02:34:48.884Z,513.00
2022-08-03T02:35:18.919Z,515.00
2022-08-03T02:35:48.920Z,515.00
2022-08-03T02:36:18.915Z,515.00
2022-08-03T02:36:48.913Z,514.00
2022-08-03T02:37:19.027Z,514.00
2022-08-03T02:37:49.555Z,514.00
2022-08-03T02:38:19.107Z,515.00
2022-08-03T02:38:49.241Z,515.00
2022-08-03T02:39:19.240Z,515.00
2022-08-03T02:39:49.236Z,515.00
2022-08-03T02:40:19.239Z,516.00
2022-08-03T02:40:49.234Z,516.00
2022-08-03T02:41:19.352Z,515.00
2022-08-03T02:41:49.350Z,515.00
2022-08-03T02:42:20.003Z,514.00
2022-08-03T02:42:49.403Z,516.00
2022-08-03T02:43:19.394Z,516.00
2022-08-03T02:44:05.620Z,516.00
2022-08-03T02:44:19.468Z,516.00
2022-08-03T02:44:49.587Z,515.00
2022-08-03T02:45:19.584Z,515.00
2022-08-03T02:45:49.610Z,516.00
2022-08-03T02:46:19.650Z,516.00
2022-08-03T02:46:49.721Z,518.00
2022-08-03T02:47:19.754Z,517.00
2022-08-03T02:47:54.279Z,516.00
2022-08-03T02:48:19.844Z,516.00
2022-08-03T02:48:49.898Z,516.00
2022-08-03T02:49:51.075Z,517.00
2022-08-03T02:49:52.156Z,516.00
2022-08-03T02:50:20.124Z,516.00
2022-08-03T02:50:50.150Z,514.00
2022-08-03T02:51:20.182Z,515.00
2022-08-03T02:51:50.224Z,514.00
2022-08-03T02:52:20.261Z,513.00
2022-08-03T02:52:50.289Z,514.00
2022-08-03T02:53:20.324Z,515.00
2022-08-03T02:53:50.394Z,516.00
2022-08-03T02:54:20.423Z,516.00
2022-08-03T02:54:50.457Z,516.00
2022-08-03T02:55:20.495Z,516.00
2022-08-03T02:55:50.531Z,516.00
2022-08-03T02:56:20.566Z,516.00
2022-08-03T02:56:50.601Z,516.00
2022-08-03T02:57:20.632Z,517.00
2022-08-03T02:57:50.665Z,516.00
2022-08-03T02:58:20.698Z,516.00
2022-08-03T02:58:50.747Z,514.00
2022-08-03T02:59:20.797Z,516.00
2022-08-03T02:59:50.835Z,515.00
2022-08-03T03:00:28.384Z,514.00
2022-08-03T03:00:51.001Z,515.00
2022-08-03T03:01:20.971Z,513.00
2022-08-03T03:01:50.976Z,513.00
2022-08-03T03:02:21.011Z,514.00
2022-08-03T03:02:51.052Z,515.00
2022-08-03T03:03:21.077Z,514.00
2022-08-03T03:03:51.136Z,515.00
2022-08-03T03:04:21.186Z,514.00
2022-08-03T03:05:53.654Z,514.00
2022-08-03T03:05:54.518Z,513.00
2022-08-03T03:05:56.153Z,513.00
2022-08-03T03:06:21.325Z,511.00
2022-08-03T03:06:51.429Z,512.00
2022-08-03T03:07:21.438Z,512.00
2022-08-03T03:07:53.183Z,511.00
2022-08-03T03:08:27.487Z,511.00
2022-08-03T03:08:51.627Z,511.00
2022-08-03T03:09:21.680Z,512.00
2022-08-03T03:09:51.713Z,512.00
2022-08-03T03:10:21.759Z,512.00
2022-08-03T03:10:55.324Z,512.00
2022-08-03T03:11:21.838Z,511.00
2022-08-03T03:11:51.870Z,510.00
2022-08-03T03:12:21.903Z,510.00
2022-08-03T03:12:51.940Z,511.00
2022-08-03T03:13:21.961Z,514.00
2022-08-03T03:13:52.000Z,516.00
2022-08-03T03:14:33.963Z,516.00
2022-08-03T03:14:52.090Z,517.00
2022-08-03T03:15:22.126Z,515.00
2022-08-03T03:15:52.177Z,514.00
2022-08-03T03:16:22.191Z,516.00
2022-08-03T03:16:52.232Z,516.00
2022-08-03T03:17:22.281Z,515.00
2022-08-03T03:17:52.310Z,514.00
2022-08-03T03:18:23.108Z,514.00
2022-08-03T03:18:52.454Z,515.00
2022-08-03T03:19:22.510Z,516.00
2022-08-03T03:19:52.543Z,518.00
2022-08-03T03:20:29.632Z,517.00
2022-08-03T03:20:52.641Z,516.00
2022-08-03T03:21:22.662Z,517.00
2022-08-03T03:21:52.701Z,516.00
2022-08-03T03:22:22.734Z,517.00
2022-08-03T03:22:52.767Z,516.00
2022-08-03T03:23:22.797Z,516.00
2022-08-03T03:23:52.836Z,515.00
2022-08-03T03:24:22.876Z,514.00
2022-08-03T03:24:52.909Z,513.00
2022-08-03T03:25:22.946Z,512.00
2022-08-03T03:25:52.973Z,513.00
2022-08-03T03:26:23.007Z,514.00
2022-08-03T03:26:53.039Z,515.00
2022-08-03T03:27:23.103Z,515.00
2022-08-03T03:27:53.101Z,515.00
2022-08-03T03:28:23.134Z,516.00
2022-08-03T03:28:53.140Z,515.00
2022-08-03T03:29:23.283Z,514.00
2022-08-03T03:29:53.188Z,514.00
2022-08-03T03:30:23.220Z,514.00
2022-08-03T03:30:53.556Z,514.00
2022-08-03T03:31:23.295Z,514.00
2022-08-03T03:31:53.317Z,515.00
2022-08-03T03:32:23.345Z,514.00
2022-08-03T03:32:53.384Z,515.00
2022-08-03T03:33:23.425Z,514.00
2022-08-03T03:33:53.453Z,514.00
2022-08-03T03:34:23.539Z,513.00
2022-08-03T03:34:53.583Z,514.00
2022-08-03T03:35:23.608Z,514.00
2022-08-03T03:35:53.730Z,517.00
2022-08-03T03:36:23.850Z,518.00
2022-08-03T03:36:53.969Z,518.00
2022-08-03T03:37:24.083Z,517.00
2022-08-03T03:37:54.081Z,518.00
2022-08-03T03:38:24.200Z,519.00
2022-08-03T03:38:54.313Z,517.00
2022-08-03T03:39:24.326Z,518.00
2022-08-03T03:39:54.320Z,518.00
2022-08-03T03:40:24.436Z,517.00
2022-08-03T03:40:54.434Z,517.00
2022-08-03T03:41:24.432Z,516.00
2022-08-03T03:41:54.547Z,514.00
2022-08-03T03:42:24.665Z,515.00
2022-08-03T03:42:54.790Z,513.00
2022-08-03T03:43:24.907Z,513.00
2022-08-03T03:43:55.026Z,514.00
2022-08-03T03:44:25.059Z,513.00
2022-08-03T03:44:55.054Z,513.00
2022-08-03T03:45:25.172Z,513.00
2022-08-03T03:45:55.205Z,512.00
2022-08-03T03:46:25.232Z,512.00
2022-08-03T03:46:55.260Z,511.00
2022-08-03T03:47:32.620Z,512.00
2022-08-03T03:47:55.350Z,512.00
2022-08-03T03:48:25.378Z,513.00
2022-08-03T03:48:55.444Z,512.00
2022-08-03T03:49:25.550Z,512.00
2022-08-03T03:49:55.459Z,512.00
2022-08-03T03:50:25.500Z,510.00
2022-08-03T03:50:55.525Z,510.00
2022-08-03T03:51:25.557Z,510.00
2022-08-03T03:51:55.592Z,511.00
2022-08-03T03:52:25.622Z,512.00
2022-08-03T03:52:55.660Z,512.00
2022-08-03T03:53:25.692Z,513.00
2022-08-03T03:53:55.726Z,513.00
2022-08-03T03:54:29.234Z,514.00
2022-08-03T03:55:00.479Z,516.00
2022-08-03T03:55:25.849Z,518.00
2022-08-03T03:56:01.590Z,520.00
2022-08-03T03:56:25.931Z,519.00
2022-08-03T03:56:55.963Z,519.00
2022-08-03T03:57:26.005Z,517.00
2022-08-03T03:57:56.041Z,517.00
2022-08-03T03:58:26.068Z,515.00
2022-08-03T03:58:56.103Z,515.00
2022-08-03T03:59:26.151Z,513.00
2022-08-03T03:59:56.182Z,514.00
2022-08-03T04:00:26.276Z,512.00
2022-08-03T04:00:56.407Z,511.00
2022-08-03T04:01:26.336Z,510.00
2022-08-03T04:01:59.113Z,510.00
2022-08-03T04:02:26.380Z,508.00
2022-08-03T04:02:56.410Z,506.00
2022-08-03T04:03:26.443Z,505.00
2022-08-03T04:03:56.482Z,507.00
2022-08-03T04:04:26.522Z,509.00
2022-08-03T04:04:56.584Z,511.00
2022-08-03T04:05:26.620Z,511.00
2022-08-03T04:05:56.650Z,510.00
2022-08-03T04:06:26.683Z,511.00
2022-08-03T04:06:56.718Z,511.00
2022-08-03T04:07:26.750Z,510.00
2022-08-03T04:07:56.784Z,510.00
2022-08-03T04:08:26.816Z,508.00
2022-08-03T04:08:56.846Z,508.00
2022-08-03T04:09:26.877Z,509.00
2022-08-03T04:09:56.934Z,511.00
2022-08-03T04:10:26.998Z,510.00
2022-08-03T04:10:57.031Z,511.00
2022-08-03T04:11:29.148Z,512.00
2022-08-03T04:11:57.174Z,511.00
2022-08-03T04:12:27.210Z,510.00
2022-08-03T04:12:57.241Z,510.00
2022-08-03T04:13:27.271Z,509.00
2022-08-03T04:13:57.302Z,511.00
2022-08-03T04:14:27.422Z,512.00
2022-08-03T04:14:57.493Z,513.00
2022-08-03T04:15:27.525Z,514.00
2022-08-03T04:15:57.566Z,515.00
2022-08-03T04:16:27.587Z,514.00
2022-08-03T04:16:57.622Z,515.00
2022-08-03T04:17:27.656Z,516.00
2022-08-03T04:17:57.687Z,517.00
2022-08-03T04:18:27.720Z,517.00
2022-08-03T04:18:57.807Z,519.00
2022-08-03T04:19:27.833Z,519.00
2022-08-03T04:19:57.882Z,520.00
2022-08-03T04:20:27.924Z,521.00
2022-08-03T04:20:57.948Z,522.00
2022-08-03T04:21:27.982Z,521.00
2022-08-03T04:21:58.016Z,519.00
2022-08-03T04:22:28.043Z,519.00
2022-08-03T04:22:58.075Z,523.00
2022-08-03T04:23:28.111Z,524.00
2022-08-03T04:23:58.140Z,523.00
2022-08-03T04:24:28.180Z,523.00
2022-08-03T04:24:58.211Z,525.00
2022-08-03T04:25:28.236Z,528.00
2022-08-03T04:25:58.271Z,530.00
2022-08-03T04:26:28.303Z,531.00
2022-08-03T04:26:58.332Z,532.00
2022-08-03T04:27:28.362Z,533.00
2022-08-03T04:28:07.587Z,534.00
2022-08-03T04:28:30.899Z,535.00
2022-08-03T04:28:58.500Z,535.00
2022-08-03T04:29:28.552Z,533.00
2022-08-03T04:29:58.660Z,534.00
2022-08-03T04:30:28.732Z,534.00
2022-08-03T04:30:58.788Z,535.00
2022-08-03T04:31:28.820Z,536.00
2022-08-03T04:31:58.852Z,536.00
2022-08-03T04:32:28.919Z,538.00
2022-08-03T04:32:58.911Z,539.00
2022-08-03T04:33:29.561Z,539.00
2022-08-03T04:33:59.061Z,539.00
2022-08-03T04:34:29.094Z,540.00
2022-08-03T04:34:59.135Z,541.00
2022-08-03T04:36:01.572Z,541.00
2022-08-03T04:36:02.300Z,542.00
2022-08-03T04:36:29.235Z,540.00
2022-08-03T04:36:59.230Z,539.00
2022-08-03T04:37:29.227Z,537.00
2022-08-03T04:37:59.346Z,538.00
2022-08-03T04:38:29.339Z,536.00
2022-08-03T04:38:59.460Z,537.00
2022-08-03T04:39:29.456Z,538.00
2022-08-03T04:39:59.580Z,538.00
2022-08-03T04:40:29.790Z,537.00
2022-08-03T04:40:59.665Z,537.00
2022-08-03T04:41:29.655Z,537.00
2022-08-03T04:42:04.418Z,538.00
2022-08-03T04:42:29.789Z,537.00
2022-08-03T04:42:59.792Z,536.00
2022-08-03T04:43:29.785Z,536.00
2022-08-03T04:43:59.779Z,538.00
2022-08-03T04:44:29.777Z,533.00
2022-08-03T04:45:01.597Z,539.00
2022-08-03T04:45:29.983Z,546.00
2022-08-03T04:46:00.017Z,551.00
2022-08-03T04:46:30.063Z,555.00
2022-08-03T04:47:00.087Z,554.00
2022-08-03T04:47:30.129Z,556.00
2022-08-03T04:48:00.178Z,557.00
2022-08-03T04:48:30.172Z,560.00
2022-08-03T04:49:00.233Z,564.00
2022-08-03T04:49:30.359Z,563.00
2022-08-03T04:50:00.312Z,563.00
2022-08-03T04:50:30.354Z,562.00
2022-08-03T04:51:00.385Z,562.00
2022-08-03T04:51:30.417Z,561.00
2022-08-03T04:52:00.452Z,562.00
2022-08-03T04:52:30.477Z,561.00
2022-08-03T04:53:00.517Z,561.00
2022-08-03T04:53:30.558Z,560.00
2022-08-03T04:54:00.598Z,565.00
2022-08-03T04:54:30.638Z,558.00
2022-08-03T04:55:00.678Z,560.00
2022-08-03T04:55:30.708Z,557.00
2022-08-03T04:56:01.566Z,557.00
2022-08-03T04:56:30.747Z,559.00
2022-08-03T04:57:00.771Z,559.00
2022-08-03T04:57:30.809Z,554.00
2022-08-03T04:58:00.841Z,551.00
2022-08-03T04:58:30.867Z,550.00
2022-08-03T04:59:00.900Z,551.00
2022-08-03T04:59:30.931Z,552.00
2022-08-03T05:00:03.463Z,553.00
2022-08-03T05:00:30.963Z,562.00
2022-08-03T05:01:00.996Z,585.00
2022-08-03T05:01:31.119Z,583.00
2022-08-03T05:02:01.075Z,582.00
2022-08-03T05:02:31.142Z,577.00
2022-08-03T05:03:01.196Z,572.00
2022-08-03T05:03:31.289Z,568.00
2022-08-03T05:04:01.336Z,566.00
2022-08-03T05:04:31.373Z,563.00
2022-08-03T05:05:01.422Z,559.00
2022-08-03T05:05:38.735Z,564.00
2022-08-03T05:06:09.701Z,566.00
2022-08-03T05:06:31.549Z,565.00
2022-08-03T05:07:12.234Z,560.00
2022-08-03T05:07:35.628Z,564.00
2022-08-03T05:08:01.682Z,561.00
2022-08-03T05:08:31.745Z,557.00
2022-08-03T05:09:01.757Z,554.00
2022-08-03T05:09:50.186Z,551.00
2022-08-03T05:10:03.251Z,547.00
2022-08-03T05:10:31.842Z,543.00
2022-08-03T05:11:01.875Z,541.00
2022-08-03T05:11:31.905Z,537.00
2022-08-03T05:12:01.936Z,544.00
2022-08-03T05:12:33.218Z,536.00
2022-08-03T05:13:01.976Z,528.00
2022-08-03T05:13:32.010Z,525.00
2022-08-03T05:14:02.048Z,522.00
2022-08-03T05:14:32.073Z,520.00
2022-08-03T05:15:02.111Z,519.00
2022-08-03T05:15:32.147Z,517.00
2022-08-03T05:16:02.176Z,511.00
2022-08-03T05:16:32.218Z,514.00
2022-08-03T05:17:02.260Z,522.00
2022-08-03T05:17:32.295Z,520.00
2022-08-03T05:18:02.327Z,520.00
2022-08-03T05:18:32.367Z,518.00
2022-08-03T05:19:02.402Z,518.00
2022-08-03T05:19:32.431Z,518.00
2022-08-03T05:20:02.462Z,518.00
2022-08-03T05:20:32.508Z,519.00
2022-08-03T05:21:02.544Z,522.00
2022-08-03T05:21:41.724Z,519.00
2022-08-03T05:22:02.615Z,517.00
2022-08-03T05:22:32.654Z,512.00
2022-08-03T05:23:02.697Z,511.00
2022-08-03T05:23:32.737Z,511.00
2022-08-03T05:24:02.786Z,510.00
2022-08-03T05:24:32.849Z,508.00
2022-08-03T05:25:02.894Z,508.00
2022-08-03T05:25:32.946Z,506.00
2022-08-03T05:26:03.001Z,505.00
2022-08-03T05:26:33.050Z,505.00
2022-08-03T05:27:03.094Z,519.00
2022-08-03T05:27:33.134Z,529.00
2022-08-03T05:28:03.236Z,521.00
2022-08-03T05:28:33.280Z,484.00
2022-08-03T05:29:03.320Z,429.00
2022-08-03T05:29:33.346Z,449.00
2022-08-03T05:30:31.078Z,495.00
2022-08-03T05:30:34.639Z,487.00
2022-08-03T05:31:03.501Z,493.00
2022-08-03T05:31:33.540Z,493.00
2022-08-03T05:32:08.007Z,495.00
2022-08-03T05:32:33.672Z,501.00
2022-08-03T05:33:03.723Z,498.00
2022-08-03T05:33:33.754Z,499.00
2022-08-03T05:34:03.779Z,500.00
2022-08-03T05:34:33.814Z,503.00
2022-08-03T05:35:55.667Z,504.00
2022-08-03T05:36:00.652Z,504.00
2022-08-03T05:36:04.579Z,519.00
2022-08-03T05:36:33.994Z,510.00
2022-08-03T05:37:03.990Z,493.00
2022-08-03T05:37:34.108Z,489.00
2022-08-03T05:38:04.103Z,492.00
2022-08-03T05:38:35.494Z,494.00
2022-08-03T05:39:04.178Z,609.00
2022-08-03T05:39:34.298Z,508.00
2022-08-03T05:40:04.380Z,485.00
2022-08-03T05:40:34.509Z,488.00
2022-08-03T05:41:22.973Z,490.00
2022-08-03T05:41:36.979Z,518.00
2022-08-03T05:42:04.570Z,502.00
2022-08-03T05:42:34.700Z,497.00
2022-08-03T05:43:04.704Z,576.00
2022-08-03T05:43:34.829Z,495.00
2022-08-03T05:44:04.874Z,469.00
2022-08-03T05:44:34.882Z,470.00
2022-08-03T05:45:04.900Z,478.00
2022-08-03T05:45:34.916Z,486.00
2022-08-03T05:46:12.492Z,492.00
2022-08-03T05:46:35.018Z,495.00
2022-08-03T05:47:05.055Z,495.00
2022-08-03T05:47:35.092Z,494.00
2022-08-03T05:48:05.127Z,496.00
2022-08-03T05:48:35.159Z,500.00
2022-08-03T05:49:05.219Z,497.00
2022-08-03T05:49:35.272Z,497.00
2022-08-03T05:50:05.286Z,500.00
2022-08-03T05:50:37.786Z,498.00
2022-08-03T05:51:05.377Z,521.00
2022-08-03T05:51:35.407Z,503.00
2022-08-03T05:52:15.624Z,513.00
2022-08-03T05:52:35.494Z,494.00
2022-08-03T05:53:05.524Z,497.00
2022-08-03T05:53:35.558Z,504.00
2022-08-03T05:54:05.595Z,497.00
2022-08-03T05:54:56.138Z,504.00
2022-08-03T05:55:05.670Z,502.00
2022-08-03T05:55:35.702Z,504.00
2022-08-03T05:56:14.060Z,505.00
2022-08-03T05:56:35.771Z,505.00
2022-08-03T05:57:05.803Z,504.00
2022-08-03T05:57:35.829Z,506.00
2022-08-03T05:58:05.866Z,506.00
2022-08-03T05:58:35.902Z,532.00
2022-08-03T05:59:22.749Z,502.00
2022-08-03T05:59:38.375Z,511.00
2022-08-03T06:00:06.013Z,492.00
2022-08-03T06:00:36.064Z,494.00
2022-08-03T06:01:06.132Z,493.00
2022-08-03T06:01:36.232Z,495.00
2022-08-03T06:02:06.350Z,498.00
2022-08-03T06:02:36.365Z,500.00
2022-08-03T06:03:06.400Z,500.00
2022-08-03T06:03:36.432Z,468.00
2022-08-03T06:04:06.488Z,501.00
2022-08-03T06:04:36.498Z,487.00
2022-08-03T06:05:06.521Z,488.00
2022-08-03T06:05:36.560Z,497.00
2022-08-03T06:06:06.614Z,495.00
2022-08-03T06:06:36.647Z,495.00
2022-08-03T06:07:06.685Z,497.00
2022-08-03T06:07:36.720Z,496.00
2022-08-03T06:08:06.748Z,552.00
2022-08-03T06:08:36.784Z,479.00
2022-08-03T06:09:06.907Z,469.00
2022-08-03T06:10:35.244Z,481.00
2022-08-03T06:10:37.535Z,481.00
2022-08-03T06:10:38.365Z,487.00
2022-08-03T06:11:07.016Z,488.00
2022-08-03T06:11:37.051Z,488.00
2022-08-03T06:12:09.146Z,501.00
2022-08-03T06:12:37.150Z,491.00
2022-08-03T06:13:07.190Z,491.00
2022-08-03T06:13:37.226Z,489.00
2022-08-03T06:14:07.253Z,492.00
2022-08-03T06:14:37.288Z,495.00